sensor_id;sensor_type;location;lat;lon;timestamp;temperature;humidity
67748;HTU21D;54543;50.712;6.070;2024-02-21T00:00:45;8.13;118.99
67748;HTU21D;54543;50.712;6.070;2024-02-21T00:03:10;8.11;118.99
67748;HTU21D;54543;50.712;6.070;2024-02-21T00:05:36;8.09;118.99
67748;HTU21D;54543;50.712;6.070;2024-02-21T00:08:02;8.06;118.99
67748;HTU21D;54543;50.712;6.070;2024-02-21T00:10:28;8.04;118.99
67748;HTU21D;54543;50.712;6.070;2024-02-21T00:12:54;8.04;118.99
67748;HTU21D;54543;50.712;6.070;2024-02-21T00:15:20;8.08;118.99
67748;HTU21D;54543;50.712;6.070;2024-02-21T00:17:46;8.05;118.99
67748;HTU21D;54543;50.712;6.070;2024-02-21T00:20:12;8.07;118.99
67748;HTU21D;54543;50.712;6.070;2024-02-21T00:22:38;8.05;118.99
67748;HTU21D;54543;50.712;6.070;2024-02-21T00:25:04;8.05;118.99
67748;HTU21D;54543;50.712;6.070;2024-02-21T00:27:29;8.04;118.99
67748;HTU21D;54543;50.712;6.070;2024-02-21T00:29:56;8.04;118.99
67748;HTU21D;54543;50.712;6.070;2024-02-21T00:32:21;8.07;118.99
67748;HTU21D;54543;50.712;6.070;2024-02-21T00:34:47;8.07;118.99
67748;HTU21D;54543;50.712;6.070;2024-02-21T00:37:13;8.05;118.99
67748;HTU21D;54543;50.712;6.070;2024-02-21T00:39:38;8.09;118.99
67748;HTU21D;54543;50.712;6.070;2024-02-21T00:42:04;8.07;118.99
67748;HTU21D;54543;50.712;6.070;2024-02-21T00:44:30;8.07;118.99
67748;HTU21D;54543;50.712;6.070;2024-02-21T00:46:55;8.05;118.99
67748;HTU21D;54543;50.712;6.070;2024-02-21T00:49:21;8.06;118.99
67748;HTU21D;54543;50.712;6.070;2024-02-21T00:51:47;8.04;118.99
67748;HTU21D;54543;50.712;6.070;2024-02-21T00:54:13;8.05;118.99
67748;HTU21D;54543;50.712;6.070;2024-02-21T00:56:38;8.03;118.99
67748;HTU21D;54543;50.712;6.070;2024-02-21T00:59:04;8.03;118.99
67748;HTU21D;54543;50.712;6.070;2024-02-21T01:01:29;8.05;118.99
67748;HTU21D;54543;50.712;6.070;2024-02-21T01:03:55;8.06;118.99
67748;HTU21D;54543;50.712;6.070;2024-02-21T01:06:20;8.08;118.99
67748;HTU21D;54543;50.712;6.070;2024-02-21T01:08:47;8.11;118.99
67748;HTU21D;54543;50.712;6.070;2024-02-21T01:11:16;8.07;118.99
67748;HTU21D;54543;50.712;6.070;2024-02-21T01:13:42;8.07;118.99
67748;HTU21D;54543;50.712;6.070;2024-02-21T01:16:07;8.05;118.99
67748;HTU21D;54543;50.712;6.070;2024-02-21T01:18:34;8.05;118.99
67748;HTU21D;54543;50.712;6.070;2024-02-21T01:21:00;8.06;118.99
67748;HTU21D;54543;50.712;6.070;2024-02-21T01:23:25;8.06;118.99
67748;HTU21D;54543;50.712;6.070;2024-02-21T01:25:51;8.05;118.99
67748;HTU21D;54543;50.712;6.070;2024-02-21T01:28:18;8.03;118.99
67748;HTU21D;54543;50.712;6.070;2024-02-21T01:30:43;8.03;118.99
67748;HTU21D;54543;50.712;6.070;2024-02-21T01:33:09;7.99;118.99
67748;HTU21D;54543;50.712;6.070;2024-02-21T01:35:35;8.01;118.99
67748;HTU21D;54543;50.712;6.070;2024-02-21T01:38:01;8.00;118.99
67748;HTU21D;54543;50.712;6.070;2024-02-21T01:40:26;8.02;118.99
67748;HTU21D;54543;50.712;6.070;2024-02-21T01:42:55;8.06;118.99
67748;HTU21D;54543;50.712;6.070;2024-02-21T01:45:20;8.03;118.99
67748;HTU21D;54543;50.712;6.070;2024-02-21T01:47:46;8.08;118.99
67748;HTU21D;54543;50.712;6.070;2024-02-21T01:50:13;8.14;118.99
67748;HTU21D;54543;50.712;6.070;2024-02-21T01:52:40;8.14;118.99
67748;HTU21D;54543;50.712;6.070;2024-02-21T01:55:06;8.14;118.99
67748;HTU21D;54543;50.712;6.070;2024-02-21T01:57:32;8.15;118.99
67748;HTU21D;54543;50.712;6.070;2024-02-21T01:59:58;8.13;118.99
67748;HTU21D;54543;50.712;6.070;2024-02-21T02:02:24;8.14;118.99
67748;HTU21D;54543;50.712;6.070;2024-02-21T02:04:50;8.14;118.99
67748;HTU21D;54543;50.712;6.070;2024-02-21T02:07:16;8.13;118.99
67748;HTU21D;54543;50.712;6.070;2024-02-21T02:09:43;8.17;118.99
67748;HTU21D;54543;50.712;6.070;2024-02-21T02:12:09;8.17;118.99
67748;HTU21D;54543;50.712;6.070;2024-02-21T02:14:34;8.17;118.99
67748;HTU21D;54543;50.712;6.070;2024-02-21T02:17:00;8.18;118.99
67748;HTU21D;54543;50.712;6.070;2024-02-21T02:19:25;8.16;118.99
67748;HTU21D;54543;50.712;6.070;2024-02-21T02:21:53;8.18;118.99
67748;HTU21D;54543;50.712;6.070;2024-02-21T02:24:24;8.16;118.99
67748;HTU21D;54543;50.712;6.070;2024-02-21T02:26:49;8.16;118.99
67748;HTU21D;54543;50.712;6.070;2024-02-21T02:29:15;8.16;118.99
67748;HTU21D;54543;50.712;6.070;2024-02-21T02:31:42;8.13;118.99
67748;HTU21D;54543;50.712;6.070;2024-02-21T02:34:07;8.13;118.99
67748;HTU21D;54543;50.712;6.070;2024-02-21T02:36:33;8.13;118.99
67748;HTU21D;54543;50.712;6.070;2024-02-21T02:38:59;8.15;118.99
67748;HTU21D;54543;50.712;6.070;2024-02-21T02:41:24;8.17;118.99
67748;HTU21D;54543;50.712;6.070;2024-02-21T02:43:50;8.15;118.99
67748;HTU21D;54543;50.712;6.070;2024-02-21T02:46:15;8.13;118.99
67748;HTU21D;54543;50.712;6.070;2024-02-21T02:48:41;8.12;118.99
67748;HTU21D;54543;50.712;6.070;2024-02-21T02:51:07;8.11;118.99
67748;HTU21D;54543;50.712;6.070;2024-02-21T02:53:32;8.12;118.99
67748;HTU21D;54543;50.712;6.070;2024-02-21T02:55:58;8.11;118.99
67748;HTU21D;54543;50.712;6.070;2024-02-21T02:58:24;8.14;118.99
67748;HTU21D;54543;50.712;6.070;2024-02-21T03:00:49;8.12;118.99
67748;HTU21D;54543;50.712;6.070;2024-02-21T03:03:15;8.12;118.99
67748;HTU21D;54543;50.712;6.070;2024-02-21T03:05:40;8.11;118.99
67748;HTU21D;54543;50.712;6.070;2024-02-21T03:08:06;8.08;118.99
67748;HTU21D;54543;50.712;6.070;2024-02-21T03:10:35;8.09;118.99
67748;HTU21D;54543;50.712;6.070;2024-02-21T03:13:01;8.09;118.99
67748;HTU21D;54543;50.712;6.070;2024-02-21T03:15:27;8.11;118.99
67748;HTU21D;54543;50.712;6.070;2024-02-21T03:17:52;8.11;118.99
67748;HTU21D;54543;50.712;6.070;2024-02-21T03:20:18;8.11;118.99
67748;HTU21D;54543;50.712;6.070;2024-02-21T03:22:45;8.11;118.99
67748;HTU21D;54543;50.712;6.070;2024-02-21T03:25:10;8.14;118.99
67748;HTU21D;54543;50.712;6.070;2024-02-21T03:27:36;8.15;118.99
67748;HTU21D;54543;50.712;6.070;2024-02-21T03:30:02;8.14;118.99
67748;HTU21D;54543;50.712;6.070;2024-02-21T03:32:29;8.15;118.99
67748;HTU21D;54543;50.712;6.070;2024-02-21T03:34:55;8.17;118.99
67748;HTU21D;54543;50.712;6.070;2024-02-21T03:37:21;8.14;118.99
67748;HTU21D;54543;50.712;6.070;2024-02-21T03:39:46;8.13;118.99
67748;HTU21D;54543;50.712;6.070;2024-02-21T03:42:12;8.13;118.99
67748;HTU21D;54543;50.712;6.070;2024-02-21T03:44:37;8.15;118.99
67748;HTU21D;54543;50.712;6.070;2024-02-21T03:47:03;8.12;118.99
67748;HTU21D;54543;50.712;6.070;2024-02-21T03:49:28;8.09;118.99
67748;HTU21D;54543;50.712;6.070;2024-02-21T03:51:54;8.08;118.99
67748;HTU21D;54543;50.712;6.070;2024-02-21T03:54:20;8.08;118.99
67748;HTU21D;54543;50.712;6.070;2024-02-21T03:56:45;8.06;118.99
67748;HTU21D;54543;50.712;6.070;2024-02-21T03:59:13;8.07;118.99
67748;HTU21D;54543;50.712;6.070;2024-02-21T04:01:38;8.05;118.99
67748;HTU21D;54543;50.712;6.070;2024-02-21T04:04:04;8.06;118.99
67748;HTU21D;54543;50.712;6.070;2024-02-21T04:06:30;8.03;118.99
67748;HTU21D;54543;50.712;6.070;2024-02-21T04:08:56;8.05;118.99
67748;HTU21D;54543;50.712;6.070;2024-02-21T04:11:21;8.04;118.99
67748;HTU21D;54543;50.712;6.070;2024-02-21T04:13:47;8.06;118.99
67748;HTU21D;54543;50.712;6.070;2024-02-21T04:16:15;8.04;118.99
67748;HTU21D;54543;50.712;6.070;2024-02-21T04:18:41;8.02;118.99
67748;HTU21D;54543;50.712;6.070;2024-02-21T04:21:06;8.03;118.99
67748;HTU21D;54543;50.712;6.070;2024-02-21T04:23:32;8.02;118.99
67748;HTU21D;54543;50.712;6.070;2024-02-21T04:25:58;8.04;118.99
67748;HTU21D;54543;50.712;6.070;2024-02-21T04:28:23;8.02;118.99
67748;HTU21D;54543;50.712;6.070;2024-02-21T04:30:49;8.03;118.99
67748;HTU21D;54543;50.712;6.070;2024-02-21T04:33:15;8.03;118.99
67748;HTU21D;54543;50.712;6.070;2024-02-21T04:35:41;8.03;118.99
67748;HTU21D;54543;50.712;6.070;2024-02-21T04:38:06;8.05;118.99
67748;HTU21D;54543;50.712;6.070;2024-02-21T04:40:32;8.03;118.99
67748;HTU21D;54543;50.712;6.070;2024-02-21T04:42:57;8.03;118.99
67748;HTU21D;54543;50.712;6.070;2024-02-21T04:45:23;8.05;118.99
67748;HTU21D;54543;50.712;6.070;2024-02-21T04:47:49;8.05;118.99
67748;HTU21D;54543;50.712;6.070;2024-02-21T04:50:14;8.04;118.99
67748;HTU21D;54543;50.712;6.070;2024-02-21T04:52:40;8.04;118.99
67748;HTU21D;54543;50.712;6.070;2024-02-21T04:55:06;8.04;118.99
67748;HTU21D;54543;50.712;6.070;2024-02-21T04:57:31;8.03;118.99
67748;HTU21D;54543;50.712;6.070;2024-02-21T04:59:57;8.04;118.99
67748;HTU21D;54543;50.712;6.070;2024-02-21T05:02:23;8.04;118.99
67748;HTU21D;54543;50.712;6.070;2024-02-21T05:04:50;8.05;118.99
67748;HTU21D;54543;50.712;6.070;2024-02-21T05:07:15;8.03;118.99
67748;HTU21D;54543;50.712;6.070;2024-02-21T05:09:42;8.04;118.99
67748;HTU21D;54543;50.712;6.070;2024-02-21T05:12:08;8.05;118.99
67748;HTU21D;54543;50.712;6.070;2024-02-21T05:14:34;8.05;118.99
67748;HTU21D;54543;50.712;6.070;2024-02-21T05:16:59;8.09;118.99
67748;HTU21D;54543;50.712;6.070;2024-02-21T05:19:25;8.13;118.99
67748;HTU21D;54543;50.712;6.070;2024-02-21T05:21:50;8.08;118.99
67748;HTU21D;54543;50.712;6.070;2024-02-21T05:24:16;8.12;118.99
67748;HTU21D;54543;50.712;6.070;2024-02-21T05:26:42;8.08;118.99
67748;HTU21D;54543;50.712;6.070;2024-02-21T05:29:07;8.06;118.99
67748;HTU21D;54543;50.712;6.070;2024-02-21T05:34:20;8.06;118.99
67748;HTU21D;54543;50.712;6.070;2024-02-21T05:36:46;8.05;118.99
67748;HTU21D;54543;50.712;6.070;2024-02-21T05:39:13;8.04;118.99
67748;HTU21D;54543;50.712;6.070;2024-02-21T05:41:38;8.03;118.99
67748;HTU21D;54543;50.712;6.070;2024-02-21T05:44:04;8.04;118.99
67748;HTU21D;54543;50.712;6.070;2024-02-21T05:46:29;8.02;118.99
67748;HTU21D;54543;50.712;6.070;2024-02-21T05:48:55;8.04;118.99
67748;HTU21D;54543;50.712;6.070;2024-02-21T05:51:20;8.03;118.99
67748;HTU21D;54543;50.712;6.070;2024-02-21T05:53:46;8.03;118.99
67748;HTU21D;54543;50.712;6.070;2024-02-21T05:56:12;8.03;118.99
67748;HTU21D;54543;50.712;6.070;2024-02-21T05:58:38;8.06;118.99
67748;HTU21D;54543;50.712;6.070;2024-02-21T06:01:04;8.14;118.99
67748;HTU21D;54543;50.712;6.070;2024-02-21T06:03:30;8.21;118.99
67748;HTU21D;54543;50.712;6.070;2024-02-21T06:05:56;8.26;118.99
67748;HTU21D;54543;50.712;6.070;2024-02-21T06:08:21;8.27;118.99
67748;HTU21D;54543;50.712;6.070;2024-02-21T06:10:47;8.29;118.99
67748;HTU21D;54543;50.712;6.070;2024-02-21T06:13:14;8.29;118.99
67748;HTU21D;54543;50.712;6.070;2024-02-21T06:15:40;8.26;118.99
67748;HTU21D;54543;50.712;6.070;2024-02-21T06:18:05;8.19;118.99
67748;HTU21D;54543;50.712;6.070;2024-02-21T06:20:31;8.14;118.99
67748;HTU21D;54543;50.712;6.070;2024-02-21T06:22:57;8.11;118.99
67748;HTU21D;54543;50.712;6.070;2024-02-21T06:25:22;8.12;118.99
67748;HTU21D;54543;50.712;6.070;2024-02-21T06:27:48;8.12;118.99
67748;HTU21D;54543;50.712;6.070;2024-02-21T06:30:13;8.13;118.99
67748;HTU21D;54543;50.712;6.070;2024-02-21T06:32:39;8.08;118.99
67748;HTU21D;54543;50.712;6.070;2024-02-21T06:35:05;8.06;118.99
67748;HTU21D;54543;50.712;6.070;2024-02-21T06:37:31;8.04;118.99
67748;HTU21D;54543;50.712;6.070;2024-02-21T06:39:57;8.00;118.99
67748;HTU21D;54543;50.712;6.070;2024-02-21T06:42:24;7.96;118.99
67748;HTU21D;54543;50.712;6.070;2024-02-21T06:44:51;7.93;118.99
67748;HTU21D;54543;50.712;6.070;2024-02-21T06:47:17;7.93;118.99
67748;HTU21D;54543;50.712;6.070;2024-02-21T06:49:42;7.94;118.99
67748;HTU21D;54543;50.712;6.070;2024-02-21T06:52:08;7.92;118.99
67748;HTU21D;54543;50.712;6.070;2024-02-21T06:54:34;7.93;118.99
67748;HTU21D;54543;50.712;6.070;2024-02-21T06:56:59;7.92;118.99
67748;HTU21D;54543;50.712;6.070;2024-02-21T06:59:25;7.94;118.99
67748;HTU21D;54543;50.712;6.070;2024-02-21T07:01:53;7.93;118.99
67748;HTU21D;54543;50.712;6.070;2024-02-21T07:04:19;7.93;118.99
67748;HTU21D;54543;50.712;6.070;2024-02-21T07:06:45;7.91;118.99
67748;HTU21D;54543;50.712;6.070;2024-02-21T07:09:11;7.91;118.99
67748;HTU21D;54543;50.712;6.070;2024-02-21T07:11:36;7.90;118.99
67748;HTU21D;54543;50.712;6.070;2024-02-21T07:14:02;7.93;118.99
67748;HTU21D;54543;50.712;6.070;2024-02-21T07:16:27;7.91;118.99
67748;HTU21D;54543;50.712;6.070;2024-02-21T07:18:55;7.88;118.99
67748;HTU21D;54543;50.712;6.070;2024-02-21T07:21:20;7.88;118.99
67748;HTU21D;54543;50.712;6.070;2024-02-21T07:23:46;7.85;118.99
67748;HTU21D;54543;50.712;6.070;2024-02-21T07:26:11;7.84;118.99
67748;HTU21D;54543;50.712;6.070;2024-02-21T07:28:37;7.85;118.99
67748;HTU21D;54543;50.712;6.070;2024-02-21T07:31:03;7.84;118.99
67748;HTU21D;54543;50.712;6.070;2024-02-21T07:33:28;7.86;118.99
67748;HTU21D;54543;50.712;6.070;2024-02-21T07:35:56;7.87;118.99
67748;HTU21D;54543;50.712;6.070;2024-02-21T07:38:21;7.89;118.99
67748;HTU21D;54543;50.712;6.070;2024-02-21T07:40:47;7.91;118.99
67748;HTU21D;54543;50.712;6.070;2024-02-21T07:43:13;7.93;118.99
67748;HTU21D;54543;50.712;6.070;2024-02-21T07:45:39;7.92;118.99
67748;HTU21D;54543;50.712;6.070;2024-02-21T07:48:05;7.94;118.99
67748;HTU21D;54543;50.712;6.070;2024-02-21T07:50:31;7.98;118.99
67748;HTU21D;54543;50.712;6.070;2024-02-21T07:52:57;7.98;118.99
67748;HTU21D;54543;50.712;6.070;2024-02-21T07:55:23;7.98;118.99
67748;HTU21D;54543;50.712;6.070;2024-02-21T07:57:48;8.00;118.99
67748;HTU21D;54543;50.712;6.070;2024-02-21T08:00:15;8.00;118.99
67748;HTU21D;54543;50.712;6.070;2024-02-21T08:02:48;8.02;118.99
67748;HTU21D;54543;50.712;6.070;2024-02-21T08:05:14;8.05;118.99
67748;HTU21D;54543;50.712;6.070;2024-02-21T08:07:40;8.07;118.99
67748;HTU21D;54543;50.712;6.070;2024-02-21T08:10:05;8.14;118.99
67748;HTU21D;54543;50.712;6.070;2024-02-21T08:12:34;8.18;118.99
67748;HTU21D;54543;50.712;6.070;2024-02-21T08:15:00;8.20;118.99
67748;HTU21D;54543;50.712;6.070;2024-02-21T08:17:26;8.23;118.99
67748;HTU21D;54543;50.712;6.070;2024-02-21T08:19:52;8.33;118.99
67748;HTU21D;54543;50.712;6.070;2024-02-21T08:22:17;8.38;118.99
67748;HTU21D;54543;50.712;6.070;2024-02-21T08:24:43;8.41;118.99
67748;HTU21D;54543;50.712;6.070;2024-02-21T08:27:08;8.41;118.99
67748;HTU21D;54543;50.712;6.070;2024-02-21T08:29:34;8.42;118.99
67748;HTU21D;54543;50.712;6.070;2024-02-21T08:32:00;8.47;118.99
67748;HTU21D;54543;50.712;6.070;2024-02-21T08:34:25;8.50;118.99
67748;HTU21D;54543;50.712;6.070;2024-02-21T08:36:51;8.53;118.99
67748;HTU21D;54543;50.712;6.070;2024-02-21T08:39:17;8.59;118.99
67748;HTU21D;54543;50.712;6.070;2024-02-21T08:41:43;8.58;118.31
67748;HTU21D;54543;50.712;6.070;2024-02-21T08:44:08;8.55;118.99
67748;HTU21D;54543;50.712;6.070;2024-02-21T08:46:34;8.56;118.99
67748;HTU21D;54543;50.712;6.070;2024-02-21T08:49:00;8.51;116.31
67748;HTU21D;54543;50.712;6.070;2024-02-21T08:51:25;8.51;118.99
67748;HTU21D;54543;50.712;6.070;2024-02-21T08:53:52;8.51;118.99
67748;HTU21D;54543;50.712;6.070;2024-02-21T08:56:19;8.53;118.99
67748;HTU21D;54543;50.712;6.070;2024-02-21T08:58:44;8.60;118.99
67748;HTU21D;54543;50.712;6.070;2024-02-21T09:01:10;8.66;118.99
67748;HTU21D;54543;50.712;6.070;2024-02-21T09:03:39;8.71;118.91
67748;HTU21D;54543;50.712;6.070;2024-02-21T09:06:06;8.75;118.99
67748;HTU21D;54543;50.712;6.070;2024-02-21T09:08:32;8.83;118.99
67748;HTU21D;54543;50.712;6.070;2024-02-21T09:11:01;8.89;118.99
67748;HTU21D;54543;50.712;6.070;2024-02-21T09:13:27;8.92;118.99
67748;HTU21D;54543;50.712;6.070;2024-02-21T09:15:53;8.97;118.99
67748;HTU21D;54543;50.712;6.070;2024-02-21T09:18:19;9.01;118.99
67748;HTU21D;54543;50.712;6.070;2024-02-21T09:20:45;9.03;116.00
67748;HTU21D;54543;50.712;6.070;2024-02-21T09:23:10;9.07;118.99
67748;HTU21D;54543;50.712;6.070;2024-02-21T09:25:36;9.07;111.99
67748;HTU21D;54543;50.712;6.070;2024-02-21T09:28:02;9.08;118.99
67748;HTU21D;54543;50.712;6.070;2024-02-21T09:30:28;9.11;118.99
67748;HTU21D;54543;50.712;6.070;2024-02-21T09:32:53;9.15;118.99
67748;HTU21D;54543;50.712;6.070;2024-02-21T09:35:19;9.14;115.30
67748;HTU21D;54543;50.712;6.070;2024-02-21T09:37:47;9.17;118.99
67748;HTU21D;54543;50.712;6.070;2024-02-21T09:40:15;9.19;118.27
67748;HTU21D;54543;50.712;6.070;2024-02-21T09:42:42;9.21;118.60
67748;HTU21D;54543;50.712;6.070;2024-02-21T09:47:48;9.25;117.60
67748;HTU21D;54543;50.712;6.070;2024-02-21T09:50:17;9.25;118.99
67748;HTU21D;54543;50.712;6.070;2024-02-21T09:52:44;9.24;118.47
67748;HTU21D;54543;50.712;6.070;2024-02-21T09:55:10;9.29;118.99
67748;HTU21D;54543;50.712;6.070;2024-02-21T09:57:38;9.31;118.99
67748;HTU21D;54543;50.712;6.070;2024-02-21T10:00:05;9.34;117.18
67748;HTU21D;54543;50.712;6.070;2024-02-21T10:02:33;9.39;118.99
67748;HTU21D;54543;50.712;6.070;2024-02-21T10:04:59;9.39;116.86
67748;HTU21D;54543;50.712;6.070;2024-02-21T10:07:25;9.44;118.99
67748;HTU21D;54543;50.712;6.070;2024-02-21T10:10:03;9.48;114.77
67748;HTU21D;54543;50.712;6.070;2024-02-21T10:12:29;9.53;117.60
67748;HTU21D;54543;50.712;6.070;2024-02-21T10:15:05;9.51;113.00
67748;HTU21D;54543;50.712;6.070;2024-02-21T10:17:34;9.54;118.41
67748;HTU21D;54543;50.712;6.070;2024-02-21T10:20:09;9.57;110.65
67748;HTU21D;54543;50.712;6.070;2024-02-21T10:22:35;9.60;110.96
67748;HTU21D;54543;50.712;6.070;2024-02-21T10:25:14;9.62;109.90
67748;HTU21D;54543;50.712;6.070;2024-02-21T10:27:40;9.64;112.56
67748;HTU21D;54543;50.712;6.070;2024-02-21T10:30:08;9.71;113.76
67748;HTU21D;54543;50.712;6.070;2024-02-21T10:32:33;9.81;115.03
67748;HTU21D;54543;50.712;6.070;2024-02-21T10:35:05;9.93;116.06
67748;HTU21D;54543;50.712;6.070;2024-02-21T10:37:31;10.05;118.43
67748;HTU21D;54543;50.712;6.070;2024-02-21T10:40:00;10.13;106.84
67748;HTU21D;54543;50.712;6.070;2024-02-21T10:42:29;10.16;105.76
67748;HTU21D;54543;50.712;6.070;2024-02-21T10:45:01;10.20;110.95
67748;HTU21D;54543;50.712;6.070;2024-02-21T10:47:31;10.23;107.95
67748;HTU21D;54543;50.712;6.070;2024-02-21T10:50:04;10.24;103.58
67748;HTU21D;54543;50.712;6.070;2024-02-21T10:52:54;10.34;108.81
67748;HTU21D;54543;50.712;6.070;2024-02-21T10:55:28;10.42;103.87
67748;HTU21D;54543;50.712;6.070;2024-02-21T10:57:57;10.48;105.43
67748;HTU21D;54543;50.712;6.070;2024-02-21T11:00:23;10.51;108.22
67748;HTU21D;54543;50.712;6.070;2024-02-21T11:02:56;10.56;109.71
67748;HTU21D;54543;50.712;6.070;2024-02-21T11:05:24;10.53;109.43
67748;HTU21D;54543;50.712;6.070;2024-02-21T11:07:51;10.54;104.96
67748;HTU21D;54543;50.712;6.070;2024-02-21T11:10:22;10.58;106.88
67748;HTU21D;54543;50.712;6.070;2024-02-21T11:12:48;10.65;110.91
67748;HTU21D;54543;50.712;6.070;2024-02-21T11:15:13;10.71;113.50
67748;HTU21D;54543;50.712;6.070;2024-02-21T11:17:40;10.77;110.38
67748;HTU21D;54543;50.712;6.070;2024-02-21T11:20:12;10.82;103.50
67748;HTU21D;54543;50.712;6.070;2024-02-21T11:22:42;10.84;103.31
67748;HTU21D;54543;50.712;6.070;2024-02-21T11:25:08;10.84;108.21
67748;HTU21D;54543;50.712;6.070;2024-02-21T11:27:37;10.89;110.33
67748;HTU21D;54543;50.712;6.070;2024-02-21T11:30:04;10.94;106.36
67748;HTU21D;54543;50.712;6.070;2024-02-21T11:32:31;10.92;104.26
67748;HTU21D;54543;50.712;6.070;2024-02-21T11:35:00;10.84;103.89
67748;HTU21D;54543;50.712;6.070;2024-02-21T11:37:30;10.85;105.60
67748;HTU21D;54543;50.712;6.070;2024-02-21T11:39:58;10.88;98.09
67748;HTU21D;54543;50.712;6.070;2024-02-21T11:42:28;10.94;108.43
67748;HTU21D;54543;50.712;6.070;2024-02-21T11:44:55;10.96;97.34
67748;HTU21D;54543;50.712;6.070;2024-02-21T11:47:24;10.96;106.53
67748;HTU21D;54543;50.712;6.070;2024-02-21T11:49:50;11.01;108.27
67748;HTU21D;54543;50.712;6.070;2024-02-21T11:52:23;11.05;107.38
67748;HTU21D;54543;50.712;6.070;2024-02-21T11:54:53;11.12;98.62
67748;HTU21D;54543;50.712;6.070;2024-02-21T11:57:20;11.15;101.18
67748;HTU21D;54543;50.712;6.070;2024-02-21T11:59:46;11.14;104.21
67748;HTU21D;54543;50.712;6.070;2024-02-21T12:02:12;11.22;106.15
67748;HTU21D;54543;50.712;6.070;2024-02-21T12:04:39;11.27;106.12
67748;HTU21D;54543;50.712;6.070;2024-02-21T12:07:05;11.32;95.92
67748;HTU21D;54543;50.712;6.070;2024-02-21T12:09:31;11.38;100.77
67748;HTU21D;54543;50.712;6.070;2024-02-21T12:11:59;11.43;100.58
67748;HTU21D;54543;50.712;6.070;2024-02-21T12:14:25;11.49;92.88
67748;HTU21D;54543;50.712;6.070;2024-02-21T12:16:50;11.57;101.06
67748;HTU21D;54543;50.712;6.070;2024-02-21T12:19:16;11.64;89.04
67748;HTU21D;54543;50.712;6.070;2024-02-21T12:21:42;11.71;101.38
67748;HTU21D;54543;50.712;6.070;2024-02-21T12:24:12;11.81;96.58
67748;HTU21D;54543;50.712;6.070;2024-02-21T12:26:39;11.86;98.62
67748;HTU21D;54543;50.712;6.070;2024-02-21T12:29:05;11.89;95.62
67748;HTU21D;54543;50.712;6.070;2024-02-21T12:31:30;12.00;97.71
67748;HTU21D;54543;50.712;6.070;2024-02-21T12:33:56;12.05;95.01
67748;HTU21D;54543;50.712;6.070;2024-02-21T12:36:22;12.08;88.02
67748;HTU21D;54543;50.712;6.070;2024-02-21T12:38:47;12.06;88.88
67748;HTU21D;54543;50.712;6.070;2024-02-21T12:41:15;11.94;89.05
67748;HTU21D;54543;50.712;6.070;2024-02-21T12:43:40;11.90;91.45
67748;HTU21D;54543;50.712;6.070;2024-02-21T12:46:06;11.90;92.14
67748;HTU21D;54543;50.712;6.070;2024-02-21T12:48:34;11.92;86.54
67748;HTU21D;54543;50.712;6.070;2024-02-21T12:51:00;11.90;88.02
67748;HTU21D;54543;50.712;6.070;2024-02-21T12:53:25;11.96;86.16
67748;HTU21D;54543;50.712;6.070;2024-02-21T12:55:51;11.99;90.35
67748;HTU21D;54543;50.712;6.070;2024-02-21T12:58:17;12.05;84.77
67748;HTU21D;54543;50.712;6.070;2024-02-21T13:00:43;12.05;84.46
67748;HTU21D;54543;50.712;6.070;2024-02-21T13:03:09;11.99;89.21
67748;HTU21D;54543;50.712;6.070;2024-02-21T13:05:37;11.99;91.89
67748;HTU21D;54543;50.712;6.070;2024-02-21T13:08:11;11.97;84.61
67748;HTU21D;54543;50.712;6.070;2024-02-21T13:10:37;11.89;87.99
67748;HTU21D;54543;50.712;6.070;2024-02-21T13:13:03;11.88;86.81
67748;HTU21D;54543;50.712;6.070;2024-02-21T13:15:29;11.88;92.21
67748;HTU21D;54543;50.712;6.070;2024-02-21T13:17:56;11.87;91.08
67748;HTU21D;54543;50.712;6.070;2024-02-21T13:20:22;11.85;87.62
67748;HTU21D;54543;50.712;6.070;2024-02-21T13:22:48;11.83;89.28
67748;HTU21D;54543;50.712;6.070;2024-02-21T13:25:13;11.79;86.63
67748;HTU21D;54543;50.712;6.070;2024-02-21T13:27:43;11.79;92.15
67748;HTU21D;54543;50.712;6.070;2024-02-21T13:30:09;11.81;93.07
67748;HTU21D;54543;50.712;6.070;2024-02-21T13:32:35;11.83;93.69
67748;HTU21D;54543;50.712;6.070;2024-02-21T13:35:01;11.84;94.88
67748;HTU21D;54543;50.712;6.070;2024-02-21T13:37:28;11.82;93.09
67748;HTU21D;54543;50.712;6.070;2024-02-21T13:39:54;11.83;94.64
67748;HTU21D;54543;50.712;6.070;2024-02-21T13:42:20;11.73;87.33
67748;HTU21D;54543;50.712;6.070;2024-02-21T13:44:46;11.71;94.09
67748;HTU21D;54543;50.712;6.070;2024-02-21T13:47:14;11.73;93.42
67748;HTU21D;54543;50.712;6.070;2024-02-21T13:49:39;11.70;93.40
67748;HTU21D;54543;50.712;6.070;2024-02-21T13:52:05;11.59;83.88
67748;HTU21D;54543;50.712;6.070;2024-02-21T13:54:30;11.55;90.92
67748;HTU21D;54543;50.712;6.070;2024-02-21T13:56:56;11.48;84.75
67748;HTU21D;54543;50.712;6.070;2024-02-21T13:59:22;11.46;88.40
67748;HTU21D;54543;50.712;6.070;2024-02-21T14:01:47;11.42;78.89
67748;HTU21D;54543;50.712;6.070;2024-02-21T14:04:13;11.42;86.53
67748;HTU21D;54543;50.712;6.070;2024-02-21T14:06:39;11.38;85.96
67748;HTU21D;54543;50.712;6.070;2024-02-21T14:09:11;11.38;81.55
67748;HTU21D;54543;50.712;6.070;2024-02-21T14:11:36;11.39;89.80
67748;HTU21D;54543;50.712;6.070;2024-02-21T14:14:04;11.41;87.23
67748;HTU21D;54543;50.712;6.070;2024-02-21T14:16:30;11.45;90.26
67748;HTU21D;54543;50.712;6.070;2024-02-21T14:18:55;11.42;78.79
67748;HTU21D;54543;50.712;6.070;2024-02-21T14:21:21;11.40;86.99
67748;HTU21D;54543;50.712;6.070;2024-02-21T14:23:47;11.37;79.46
67748;HTU21D;54543;50.712;6.070;2024-02-21T14:26:12;11.37;80.60
67748;HTU21D;54543;50.712;6.070;2024-02-21T14:28:39;11.32;79.95
67748;HTU21D;54543;50.712;6.070;2024-02-21T14:31:05;11.29;81.57
67748;HTU21D;54543;50.712;6.070;2024-02-21T14:33:35;11.26;82.03
67748;HTU21D;54543;50.712;6.070;2024-02-21T14:36:00;11.28;84.31
67748;HTU21D;54543;50.712;6.070;2024-02-21T14:38:26;11.26;82.87
67748;HTU21D;54543;50.712;6.070;2024-02-21T14:40:52;11.27;85.07
67748;HTU21D;54543;50.712;6.070;2024-02-21T14:43:18;11.29;86.35
67748;HTU21D;54543;50.712;6.070;2024-02-21T14:45:47;11.28;83.48
67748;HTU21D;54543;50.712;6.070;2024-02-21T14:48:15;11.25;79.14
67748;HTU21D;54543;50.712;6.070;2024-02-21T14:50:41;11.18;73.09
67748;HTU21D;54543;50.712;6.070;2024-02-21T14:53:08;11.16;80.52
67748;HTU21D;54543;50.712;6.070;2024-02-21T14:55:34;11.16;83.55
67748;HTU21D;54543;50.712;6.070;2024-02-21T14:57:59;11.12;77.67
67748;HTU21D;54543;50.712;6.070;2024-02-21T15:00:26;11.09;81.37
67748;HTU21D;54543;50.712;6.070;2024-02-21T15:02:58;11.02;77.16
67748;HTU21D;54543;50.712;6.070;2024-02-21T15:05:24;10.99;79.56
67748;HTU21D;54543;50.712;6.070;2024-02-21T15:07:50;10.96;78.01
67748;HTU21D;54543;50.712;6.070;2024-02-21T15:10:16;10.96;77.46
67748;HTU21D;54543;50.712;6.070;2024-02-21T15:12:47;10.92;81.78
67748;HTU21D;54543;50.712;6.070;2024-02-21T15:15:13;10.90;82.84